createdAt,value
2024-03-03T00:01:44.418Z,95280.66
2024-03-03T00:04:12.112Z,95272.38
2024-03-03T00:06:44.473Z,95261.31
2024-03-03T00:09:13.202Z,95259.31
2024-03-03T00:11:39.888Z,95270.03
2024-03-03T00:14:08.970Z,95261.38
2024-03-03T00:16:36.205Z,95255.31
2024-03-03T00:19:02.987Z,95261.47
2024-03-03T00:21:31.518Z,95261.66
2024-03-03T00:24:01.359Z,95259.84
2024-03-03T00:26:28.647Z,95261.66
2024-03-03T00:28:55.529Z,95257.53
2024-03-03T00:31:22.652Z,95261.19
2024-03-03T00:33:50.010Z,95265.84
2024-03-03T00:36:16.675Z,95257.88
2024-03-03T00:38:43.467Z,95262.25
2024-03-03T00:41:11.321Z,95263.28
2024-03-03T00:43:38.779Z,95268.25
2024-03-03T00:46:06.591Z,95262.56
2024-03-03T00:48:33.586Z,95266.03
2024-03-03T00:51:01.183Z,95258.75
2024-03-03T00:53:28.047Z,95260.78
2024-03-03T00:55:54.709Z,95257.63
2024-03-03T00:58:23.496Z,95262.94
2024-03-03T01:00:50.368Z,95253.16
2024-03-03T01:03:17.201Z,95256.34
2024-03-03T01:05:44.069Z,95254.50
2024-03-03T01:08:12.450Z,95241.78
2024-03-03T01:10:41.285Z,95240.84
2024-03-03T01:13:08.335Z,95245.47
2024-03-03T01:15:37.030Z,95242.19
2024-03-03T01:18:06.036Z,95232.25
2024-03-03T01:20:35.347Z,95239.25
2024-03-03T01:23:02.189Z,95255.50
2024-03-03T01:25:32.720Z,95249.91
2024-03-03T01:27:59.544Z,95248.91
2024-03-03T01:30:27.217Z,95245.47
2024-03-03T01:32:56.052Z,95239.06
2024-03-03T01:35:23.785Z,95235.91
2024-03-03T01:37:51.886Z,95230.66
2024-03-03T01:40:18.629Z,95231.81
2024-03-03T01:42:45.623Z,95237.13
2024-03-03T01:45:23.791Z,95233.50
2024-03-03T01:47:55.627Z,95226.72
2024-03-03T01:50:25.561Z,95226.91
2024-03-03T01:52:54.370Z,95219.66
2024-03-03T01:55:23.625Z,95224.94
2024-03-03T01:57:54.424Z,95227.59
2024-03-03T02:00:22.888Z,95223.97
2024-03-03T02:02:50.717Z,95231.25
2024-03-03T02:05:19.904Z,95221.84
2024-03-03T02:07:48.214Z,95223.34
2024-03-03T02:10:17.792Z,95208.78
2024-03-03T02:12:48.634Z,95217.38
2024-03-03T02:15:15.748Z,95213.59
2024-03-03T02:17:42.473Z,95211.09
2024-03-03T02:20:10.446Z,95209.78
2024-03-03T02:22:38.080Z,95210.59
2024-03-03T02:25:09.794Z,95215.38
2024-03-03T02:27:39.301Z,95207.78
2024-03-03T02:30:07.134Z,95214.06
2024-03-03T02:32:33.871Z,95212.38
2024-03-03T02:35:00.638Z,95203.16
2024-03-03T02:37:27.343Z,95195.91
2024-03-03T02:39:54.251Z,95200.34
2024-03-03T02:42:21.092Z,95205.47
2024-03-03T02:44:47.800Z,95205.94
2024-03-03T02:47:15.590Z,95205.63
2024-03-03T02:49:47.293Z,95200.84
2024-03-03T02:52:15.677Z,95208.75
2024-03-03T02:54:42.670Z,95199.00
2024-03-03T02:57:09.775Z,95192.41
2024-03-03T02:59:36.478Z,95193.75
2024-03-03T03:02:03.443Z,95198.53
2024-03-03T03:04:33.155Z,95181.00
2024-03-03T03:07:00.278Z,95181.69
2024-03-03T03:09:26.989Z,95178.72
2024-03-03T03:11:58.892Z,95174.22
2024-03-03T03:14:25.634Z,95171.09
2024-03-03T03:16:53.029Z,95184.16
2024-03-03T03:19:21.898Z,95167.16
2024-03-03T03:21:48.936Z,95174.41
2024-03-03T03:24:15.689Z,95175.91
2024-03-03T03:26:47.036Z,95174.06
2024-03-03T03:29:13.731Z,95177.22
2024-03-03T03:31:40.860Z,95175.41
2024-03-03T03:34:08.640Z,95170.63
2024-03-03T03:36:36.062Z,95180.84
2024-03-03T03:39:11.364Z,95174.06
2024-03-03T03:41:48.352Z,95182.97
2024-03-03T03:44:15.720Z,95193.06
2024-03-03T03:46:45.993Z,95185.47
2024-03-03T03:49:15.009Z,95185.97
2024-03-03T03:51:42.642Z,95183.47
2024-03-03T03:54:09.627Z,95182.50
2024-03-03T03:56:37.248Z,95181.47
2024-03-03T03:59:07.169Z,95192.03
2024-03-03T04:01:34.188Z,95181.78
2024-03-03T04:04:01.165Z,95176.66
2024-03-03T04:06:30.324Z,95175.97
2024-03-03T04:08:57.069Z,95182.94
2024-03-03T04:11:24.902Z,95178.78
2024-03-03T04:13:51.886Z,95172.16
2024-03-03T04:16:22.412Z,95169.50
2024-03-03T04:18:49.363Z,95169.16
2024-03-03T04:21:16.312Z,95167.66
2024-03-03T04:23:45.110Z,95176.53
2024-03-03T04:26:14.045Z,95175.69
2024-03-03T04:28:40.713Z,95182.44
2024-03-03T04:31:08.266Z,95184.44
2024-03-03T04:33:35.497Z,95178.34
2024-03-03T04:36:11.505Z,95171.59
2024-03-03T04:38:41.578Z,95165.50
2024-03-03T04:41:20.521Z,95176.25
2024-03-03T04:43:48.246Z,95180.84
2024-03-03T04:46:15.498Z,95177.22
2024-03-03T04:48:43.376Z,95176.75
2024-03-03T04:51:10.260Z,95176.75
2024-03-03T04:53:37.959Z,95179.56
2024-03-03T04:56:05.619Z,95177.59
2024-03-03T04:58:35.482Z,95179.75
2024-03-03T05:01:02.536Z,95177.97
2024-03-03T05:03:31.501Z,95179.47
2024-03-03T05:06:01.107Z,95173.66
2024-03-03T05:08:27.766Z,95175.97
2024-03-03T05:10:54.888Z,95177.63
2024-03-03T05:13:25.840Z,95174.31
2024-03-03T05:15:52.817Z,95171.19
2024-03-03T05:18:20.111Z,95174.97
2024-03-03T05:20:50.140Z,95180.25
2024-03-03T05:23:17.019Z,95180.56
2024-03-03T05:25:43.989Z,95180.88
2024-03-03T05:28:10.689Z,95182.03
2024-03-03T05:30:39.967Z,95177.88
2024-03-03T05:33:08.515Z,95186.28
2024-03-03T05:35:37.438Z,95190.44
2024-03-03T05:38:04.226Z,95192.38
2024-03-03T05:40:31.299Z,95183.81
2024-03-03T05:42:58.075Z,95190.75
2024-03-03T05:45:25.131Z,95180.84
2024-03-03T05:47:51.954Z,95188.16
2024-03-03T05:50:18.894Z,95187.66
2024-03-03T05:52:46.112Z,95183.38
2024-03-03T05:55:12.969Z,95180.44
2024-03-03T05:57:39.662Z,95178.78
2024-03-03T06:00:07.308Z,95181.91
2024-03-03T06:02:34.055Z,95186.00
2024-03-03T06:05:05.964Z,95185.19
2024-03-03T06:07:34.631Z,95188.34
2024-03-03T06:10:02.183Z,95186.50
2024-03-03T06:12:28.920Z,95192.31
2024-03-03T06:14:56.765Z,95189.00
2024-03-03T06:17:23.451Z,95185.56
2024-03-03T06:19:50.386Z,95180.25
2024-03-03T06:22:20.111Z,95184.69
2024-03-03T06:24:48.519Z,95189.16
2024-03-03T06:27:15.290Z,95189.34
2024-03-03T06:29:42.043Z,95183.41
2024-03-03T06:32:08.862Z,95191.00
2024-03-03T06:34:35.703Z,95189.69
2024-03-03T06:37:02.574Z,95181.63
2024-03-03T06:39:29.705Z,95189.88
2024-03-03T06:41:59.513Z,95188.25
2024-03-03T06:44:34.347Z,95178.03
2024-03-03T06:47:02.004Z,95174.75
2024-03-03T06:49:29.070Z,95176.41
2024-03-03T06:51:57.230Z,95181.69
2024-03-03T06:54:24.154Z,95178.03
2024-03-03T06:56:50.839Z,95185.66
2024-03-03T06:59:17.624Z,95181.34
2024-03-03T07:01:51.586Z,95181.84
2024-03-03T07:04:18.576Z,95181.47
2024-03-03T07:06:45.366Z,95178.97
2024-03-03T07:09:12.128Z,95168.38
2024-03-03T07:11:38.891Z,95165.81
2024-03-03T07:14:05.771Z,95168.84
2024-03-03T07:16:32.708Z,95175.00
2024-03-03T07:19:00.501Z,95167.25
2024-03-03T07:21:28.071Z,95162.69
2024-03-03T07:23:54.860Z,95165.06
2024-03-03T07:26:21.616Z,95164.41
2024-03-03T07:28:48.988Z,95157.53
2024-03-03T07:31:15.666Z,95167.19
2024-03-03T07:33:42.483Z,95168.13
2024-03-03T07:36:09.284Z,95160.09
2024-03-03T07:38:36.881Z,95168.53
2024-03-03T07:41:03.764Z,95168.63
2024-03-03T07:43:31.482Z,95167.13
2024-03-03T07:45:58.379Z,95158.78
2024-03-03T07:48:25.599Z,95166.94
2024-03-03T07:50:53.338Z,95172.38
2024-03-03T07:53:21.267Z,95166.13
2024-03-03T07:55:49.324Z,95163.34
2024-03-03T07:58:16.305Z,95165.81
2024-03-03T08:00:43.650Z,95166.94
2024-03-03T08:03:14.040Z,95156.25
2024-03-03T08:05:40.901Z,95167.00
2024-03-03T08:08:08.313Z,95158.47
2024-03-03T08:10:35.993Z,95153.19
2024-03-03T08:13:04.671Z,95154.44
2024-03-03T08:15:31.416Z,95156.19
2024-03-03T08:18:01.726Z,95145.69
2024-03-03T08:20:29.669Z,95151.66
2024-03-03T08:22:58.524Z,95140.00
2024-03-03T08:25:31.830Z,95141.25
2024-03-03T08:28:04.171Z,95143.59
2024-03-03T08:30:31.954Z,95139.53
2024-03-03T08:33:01.363Z,95138.75
2024-03-03T08:35:28.144Z,95135.47
2024-03-03T08:37:57.147Z,95141.25
2024-03-03T08:40:25.139Z,95135.50
2024-03-03T08:42:52.237Z,95140.22
2024-03-03T08:45:19.000Z,95135.50
2024-03-03T08:47:45.792Z,95138.97
2024-03-03T08:50:12.538Z,95139.19
2024-03-03T08:52:40.714Z,95130.75
2024-03-03T08:55:07.847Z,95140.84
2024-03-03T08:57:35.389Z,95122.75
2024-03-03T09:00:03.261Z,95120.91
2024-03-03T09:02:30.032Z,95132.41
2024-03-03T09:05:06.508Z,95125.03
2024-03-03T09:07:33.696Z,95129.75
2024-03-03T09:10:00.615Z,95127.50
2024-03-03T09:12:29.106Z,95132.97
2024-03-03T09:14:55.858Z,95138.06
2024-03-03T09:17:22.704Z,95138.94
2024-03-03T09:19:49.715Z,95135.72
2024-03-03T09:22:19.785Z,95133.63
2024-03-03T09:24:48.028Z,95123.38
2024-03-03T09:27:15.785Z,95127.28
2024-03-03T09:29:43.564Z,95127.88
2024-03-03T09:32:11.183Z,95120.06
2024-03-03T09:34:38.315Z,95124.81
2024-03-03T09:37:08.459Z,95128.28
2024-03-03T09:39:35.458Z,95126.03
2024-03-03T09:42:03.828Z,95128.88
2024-03-03T09:44:48.720Z,95125.72
2024-03-03T09:47:18.436Z,95122.44
2024-03-03T09:49:49.841Z,95132.97
2024-03-03T09:52:21.735Z,95133.00
2024-03-03T09:54:51.878Z,95135.50
2024-03-03T09:57:19.486Z,95134.03
2024-03-03T09:59:52.752Z,95132.97
2024-03-03T10:02:27.115Z,95137.28
2024-03-03T10:04:58.503Z,95139.53
2024-03-03T10:07:27.535Z,95131.66
2024-03-03T10:10:07.434Z,95130.00
2024-03-03T10:12:35.246Z,95131.47
2024-03-03T10:15:09.872Z,95137.03
2024-03-03T10:20:29.190Z,95138.06
2024-03-03T10:22:57.646Z,95117.09
2024-03-03T10:25:25.983Z,95120.75
2024-03-03T10:27:54.401Z,95116.84
2024-03-03T10:30:30.955Z,95113.28
2024-03-03T10:33:08.050Z,95114.22
2024-03-03T10:35:38.521Z,95101.47
2024-03-03T10:38:05.679Z,95093.69
2024-03-03T10:40:35.464Z,95106.69
2024-03-03T10:43:02.501Z,95105.06
2024-03-03T10:45:32.869Z,95093.28
2024-03-03T10:48:03.499Z,95100.44
2024-03-03T10:50:53.475Z,95083.91
2024-03-03T10:53:23.460Z,95081.41
2024-03-03T10:55:55.282Z,95069.72
2024-03-03T10:58:25.082Z,95072.38
2024-03-03T11:00:57.075Z,95061.94
2024-03-03T11:03:30.191Z,95064.88
2024-03-03T11:05:58.595Z,95047.94
2024-03-03T11:08:28.233Z,95049.81
2024-03-03T11:11:04.009Z,95043.03
2024-03-03T11:13:33.348Z,95032.47
2024-03-03T11:16:04.049Z,95038.59
2024-03-03T11:18:44.233Z,95033.00
2024-03-03T11:24:08.026Z,95025.16
2024-03-03T11:26:41.623Z,95014.81
2024-03-03T11:29:10.070Z,95012.50
2024-03-03T11:31:42.389Z,95019.69
2024-03-03T11:34:15.329Z,95006.84
2024-03-03T11:36:43.663Z,95025.44
2024-03-03T11:39:15.209Z,95014.25
2024-03-03T11:41:45.162Z,95012.63
2024-03-03T11:44:53.497Z,95009.25
2024-03-03T11:47:30.757Z,95010.44
2024-03-03T11:50:02.928Z,94997.53
2024-03-03T11:52:53.561Z,94999.69
2024-03-03T11:55:26.065Z,94990.91
2024-03-03T11:57:56.788Z,94995.00
2024-03-03T12:00:26.099Z,94989.28
2024-03-03T12:02:56.448Z,94984.84
2024-03-03T12:05:24.624Z,94985.69
2024-03-03T12:07:56.570Z,94990.78
2024-03-03T12:10:31.096Z,94975.81
2024-03-03T12:13:12.298Z,94987.44
2024-03-03T12:15:38.966Z,94990.75
2024-03-03T12:18:19.963Z,94988.78
2024-03-03T12:22:05.138Z,94984.06
2024-03-03T12:25:03.776Z,94978.06
2024-03-03T12:27:38.037Z,94971.97
2024-03-03T12:30:53.646Z,94980.59
2024-03-03T12:33:39.269Z,94974.47
2024-03-03T12:45:44.551Z,94977.97
2024-03-03T12:48:17.148Z,94982.25
2024-03-03T12:51:21.877Z,94977.34
2024-03-03T12:56:52.748Z,94989.22
2024-03-03T13:03:39.460Z,94982.00
2024-03-03T13:21:54.882Z,94987.69
2024-03-03T13:28:42.505Z,94979.47
2024-03-03T13:34:02.191Z,94980.19
2024-03-03T13:36:43.820Z,94968.28
2024-03-03T13:59:40.096Z,94958.28
2024-03-03T14:02:30.512Z,94971.88
2024-03-03T14:08:10.778Z,94981.22
2024-03-03T14:10:46.724Z,94971.66
2024-03-03T14:13:20.346Z,94968.53
2024-03-03T14:15:50.251Z,94979.47
2024-03-03T14:28:20.805Z,95001.06
2024-03-03T14:47:08.507Z,94991.88
2024-03-03T14:52:53.002Z,95008.22
2024-03-03T14:55:25.100Z,95009.50
2024-03-03T14:58:20.793Z,95002.56
2024-03-03T15:01:16.792Z,94992.53
2024-03-03T15:04:23.044Z,94996.44
2024-03-03T15:49:55.745Z,94994.19
2024-03-03T15:52:23.174Z,94999.50
2024-03-03T15:54:49.960Z,94990.94
2024-03-03T15:57:57.190Z,94993.16
2024-03-03T16:00:23.990Z,94994.97
2024-03-03T16:03:11.086Z,94997.00
2024-03-03T16:05:44.057Z,94999.41
2024-03-03T16:11:40.854Z,94996.69
2024-03-03T16:14:47.685Z,95003.22
2024-03-03T16:18:07.554Z,95007.06
2024-03-03T16:21:00.500Z,95005.22
2024-03-03T16:24:07.158Z,95009.03
2024-03-03T16:27:56.990Z,95017.56
2024-03-03T16:30:28.701Z,95018.84
2024-03-03T16:33:20.717Z,95020.84
2024-03-03T16:36:18.379Z,95015.91
2024-03-03T16:39:46.557Z,95027.75
2024-03-03T16:42:14.572Z,95015.66
2024-03-03T17:24:06.629Z,95071.38
2024-03-03T17:43:12.630Z,95074.69
2024-03-03T18:00:07.438Z,95085.44
2024-03-03T18:03:02.322Z,95082.13
2024-03-03T18:05:52.611Z,95077.34
2024-03-03T18:08:39.218Z,95086.09
2024-03-03T18:17:02.838Z,95077.63
2024-03-03T18:19:49.393Z,95082.44
2024-03-03T18:22:47.332Z,95080.69
2024-03-03T18:25:54.862Z,95089.66
2024-03-03T18:28:30.755Z,95089.66
2024-03-03T18:31:33.494Z,95096.13
2024-03-03T18:34:00.299Z,95086.56
2024-03-03T18:36:54.913Z,95090.38
2024-03-03T18:40:07.604Z,95094.69
2024-03-03T18:42:54.300Z,95107.09
2024-03-03T18:45:23.080Z,95103.31
2024-03-03T18:48:14.784Z,95102.66
2024-03-03T18:57:18.537Z,95106.25
2024-03-03T18:59:45.282Z,95105.44
2024-03-03T19:03:24.133Z,95113.75
2024-03-03T19:06:23.337Z,95108.31
2024-03-03T19:11:38.272Z,95112.50
2024-03-03T19:14:30.855Z,95113.00
2024-03-03T19:17:27.568Z,95117.50
2024-03-03T19:19:57.740Z,95128.75
2024-03-03T19:22:27.101Z,95131.91
2024-03-03T19:24:57.071Z,95128.44
2024-03-03T19:30:52.588Z,95141.84
2024-03-03T19:33:55.070Z,95137.72
2024-03-03T19:36:50.346Z,95149.63
2024-03-03T19:39:36.225Z,95155.72
2024-03-03T19:45:51.259Z,95163.19
2024-03-03T19:48:21.182Z,95164.19
2024-03-03T19:51:54.751Z,95162.69
2024-03-03T19:54:42.329Z,95174.25
2024-03-03T19:57:31.575Z,95163.50
2024-03-03T20:00:59.125Z,95170.78
2024-03-03T20:03:46.266Z,95154.25
2024-03-03T21:13:33.369Z,95182.75
2024-03-03T21:22:54.396Z,95189.00
2024-03-03T21:25:51.399Z,95187.66
2024-03-03T21:32:32.047Z,95193.72
2024-03-03T21:34:58.681Z,95194.53
2024-03-03T21:37:31.240Z,95185.28
2024-03-03T21:39:58.037Z,95187.38
2024-03-03T22:26:26.755Z,95183.81
2024-03-03T22:29:26.708Z,95192.56
2024-03-03T22:34:46.017Z,95187.31
2024-03-03T22:40:48.835Z,95191.06
2024-03-03T22:43:18.936Z,95186.63
2024-03-03T22:51:45.221Z,95186.53
2024-03-03T22:54:33.143Z,95188.50
2024-03-03T22:57:26.348Z,95189.03
2024-03-03T23:02:48.808Z,95187.84
2024-03-03T23:35:58.758Z,95197.66
2024-03-03T23:38:25.434Z,95206.38
2024-03-03T23:40:52.158Z,95203.53
2024-03-03T23:46:02.340Z,95208.03
2024-03-03T23:49:14.397Z,95219.84
2024-03-03T23:52:16.464Z,95220.53
2024-03-03T23:55:05.715Z,95209.47
2024-03-03T23:57:38.439Z,95212.25
